createdAt,value
2019-05-25T00:03:57.335Z,92.80
2019-05-25T00:09:02.132Z,93.00
2019-05-25T00:14:06.986Z,93.30
2019-05-25T00:19:11.791Z,93.30
2019-05-25T00:24:16.610Z,93.10
2019-05-25T00:29:21.473Z,92.50
2019-05-25T00:34:26.311Z,92.50
2019-05-25T00:39:31.146Z,92.60
2019-05-25T00:44:35.996Z,93.00
2019-05-25T00:49:40.944Z,93.10
2019-05-25T00:54:45.770Z,93.50
2019-05-25T00:59:50.596Z,93.50
2019-05-25T01:04:56.108Z,93.70
2019-05-25T01:10:01.181Z,94.10
2019-05-25T01:15:08.080Z,94.30
2019-05-25T01:20:14.504Z,94.50
2019-05-25T01:25:19.453Z,94.70
2019-05-25T01:30:24.315Z,95.00
2019-05-25T01:35:29.182Z,95.30
2019-05-25T01:40:34.146Z,95.70
2019-05-25T01:45:39.006Z,95.70
2019-05-25T01:50:44.873Z,95.60
2019-05-25T01:55:50.136Z,96.10
2019-05-25T02:00:55.608Z,96.20
2019-05-25T02:06:00.512Z,96.10
2019-05-25T02:11:05.379Z,95.90
2019-05-25T02:16:10.354Z,96.00
2019-05-25T02:21:15.164Z,95.80
2019-05-25T02:26:20.017Z,95.90
2019-05-25T02:31:24.881Z,96.10
2019-05-25T02:36:29.662Z,96.40
2019-05-25T02:41:34.489Z,97.00
2019-05-25T02:46:39.681Z,96.80
2019-05-25T02:51:44.530Z,96.60
2019-05-25T02:56:49.334Z,96.70
2019-05-25T03:01:56.163Z,96.80
2019-05-25T03:07:03.490Z,96.90
2019-05-25T03:12:08.542Z,97.10
2019-05-25T03:17:13.401Z,97.00
2019-05-25T03:22:18.341Z,97.20
2019-05-25T03:27:23.110Z,97.30
2019-05-25T03:32:27.942Z,97.20
2019-05-25T03:37:32.782Z,98.00
2019-05-25T03:42:37.623Z,97.80
2019-05-25T03:47:42.372Z,97.60
2019-05-25T03:52:47.213Z,97.60
2019-05-25T03:57:52.050Z,96.80
2019-05-25T04:02:56.970Z,97.00
2019-05-25T04:08:01.850Z,97.20
2019-05-25T04:13:06.679Z,96.50
2019-05-25T04:18:11.514Z,95.80
2019-05-25T04:23:16.373Z,94.60
2019-05-25T04:28:21.243Z,94.40
2019-05-25T04:33:26.198Z,94.20
2019-05-25T04:38:31.070Z,94.30
2019-05-25T04:43:35.892Z,95.10
2019-05-25T04:48:40.585Z,94.70
2019-05-25T04:53:45.462Z,94.80
2019-05-25T04:58:50.362Z,93.90
2019-05-25T05:03:55.681Z,93.40
2019-05-25T05:09:00.612Z,92.10
2019-05-25T05:14:05.541Z,91.80
2019-05-25T05:19:10.381Z,91.00
2019-05-25T05:24:15.141Z,90.50
2019-05-25T05:29:20.055Z,90.30
2019-05-25T05:34:25.343Z,90.20
2019-05-25T05:39:30.907Z,87.70
2019-05-25T05:44:38.402Z,86.90
2019-05-25T05:49:45.303Z,87.20
2019-05-25T05:54:52.606Z,88.20
2019-05-25T05:59:57.458Z,86.90
2019-05-25T06:05:03.041Z,86.90
2019-05-25T06:10:08.338Z,86.90
2019-05-25T06:15:13.386Z,84.80
2019-05-25T06:20:18.261Z,85.30
2019-05-25T06:25:23.122Z,85.50
2019-05-25T06:30:27.984Z,84.10
2019-05-25T06:35:32.864Z,85.00
2019-05-25T06:40:37.718Z,84.60
2019-05-25T06:45:43.378Z,82.40
2019-05-25T06:50:48.220Z,81.50
2019-05-25T06:55:53.152Z,82.20
2019-05-25T19:29:37.729Z,72.50
2019-05-25T19:34:58.505Z,72.50
2019-05-25T19:39:49.891Z,74.20
2019-05-25T19:44:54.832Z,77.60
2019-05-25T19:50:03.854Z,79.40
2019-05-25T19:55:09.165Z,79.70
2019-05-25T20:00:15.006Z,80.40
2019-05-25T20:05:21.333Z,81.10
2019-05-25T20:10:26.306Z,80.00
2019-05-25T20:15:31.268Z,82.40
2019-05-25T20:20:36.124Z,82.50
2019-05-25T20:25:40.942Z,83.20
2019-05-25T20:30:45.795Z,84.00
2019-05-25T20:35:50.765Z,81.70
2019-05-25T20:40:55.597Z,82.60
2019-05-25T20:46:00.513Z,82.10
2019-05-25T20:51:05.449Z,84.00
2019-05-25T20:56:10.388Z,85.40
2019-05-25T21:01:15.317Z,86.00
2019-05-25T21:06:20.587Z,84.80
2019-05-25T21:11:25.517Z,86.40
2019-05-25T21:16:30.460Z,86.00
2019-05-25T21:21:35.381Z,88.40
2019-05-25T21:26:40.270Z,88.50
2019-05-25T21:31:45.145Z,87.40
2019-05-25T21:36:50.089Z,85.70
2019-05-25T21:41:54.956Z,86.60
2019-05-25T21:46:59.994Z,88.50
2019-05-25T21:52:04.932Z,88.20
2019-05-25T21:57:09.881Z,89.70
2019-05-25T22:02:14.831Z,88.90
2019-05-25T22:07:19.994Z,90.70
2019-05-25T22:12:24.824Z,90.80
2019-05-25T22:17:29.710Z,90.70
2019-05-25T22:22:34.532Z,90.80
2019-05-25T22:27:39.358Z,91.30
2019-05-25T22:32:44.796Z,91.40
2019-05-25T22:37:49.646Z,91.90
2019-05-25T22:42:54.422Z,91.30
2019-05-25T22:47:59.326Z,90.80
2019-05-25T22:53:05.667Z,91.10
2019-05-25T22:58:10.606Z,91.20
2019-05-25T23:03:15.457Z,91.70
2019-05-25T23:08:20.832Z,91.50
2019-05-25T23:13:25.705Z,91.60
2019-05-25T23:18:30.724Z,92.30
2019-05-25T23:23:35.587Z,92.30
2019-05-25T23:28:40.440Z,92.40
2019-05-25T23:33:45.384Z,92.60
2019-05-25T23:38:50.255Z,93.10
2019-05-25T23:43:55.112Z,93.30
2019-05-25T23:49:00.102Z,92.80
2019-05-25T23:54:04.969Z,92.80
2019-05-25T23:59:09.805Z,93.60
